Time;durP1;ratioP1;P1;durP2;ratioP2;P2;SDS_P1;SDS_P2;PMS_P1;PMS_P2;Temp;Humidity;BMP_temperature;BMP_pressure;BME280_temperature;BME280_humidity;BME280_pressure;Samples;Min_cycle;Max_cycle;Signal;HPM_P1;HPM_P2
2022/08/17 00:01:54;;;;;;;21.23;16.55;;;;;;;;;;5094531;28;20342;-80
2022/08/17 00:04:21;;;;;;;20.52;14.93;;;;;;;;;;5094578;28;20020;-80
2022/08/17 00:06:47;;;;;;;22.42;14.35;;;;;;;;;;5094219;28;20024;-80
2022/08/17 00:09:13;;;;;;;21.13;15.30;;;;;;;;;;5094227;28;20016;-80
2022/08/17 00:11:41;;;;;;;21.23;16.35;;;;;;;;;;5094280;28;20025;-80
2022/08/17 00:14:07;;;;;;;21.13;15.15;;;;;;;;;;5093906;28;20017;-80
2022/08/17 00:16:35;;;;;;;25.40;16.40;;;;;;;;;;5093979;28;20032;-80
2022/08/17 00:19:03;;;;;;;25.88;16.88;;;;;;;;;;5093989;28;20359;-80
2022/08/17 00:21:29;;;;;;;21.85;15.82;;;;;;;;;;5093860;28;20031;-80
2022/08/17 00:23:55;;;;;;;22.17;15.82;;;;;;;;;;5082443;28;20024;-80
2022/08/17 00:26:22;;;;;;;20.40;15.00;;;;;;;;;;5114254;28;20027;-80
2022/08/17 00:28:48;;;;;;;22.42;15.30;;;;;;;;;;5114223;28;20020;-80
2022/08/17 00:31:14;;;;;;;21.27;15.57;;;;;;;;;;5114086;28;20023;-80
2022/08/17 00:33:42;;;;;;;21.23;15.30;;;;;;;;;;5113990;28;20056;-80
2022/08/17 00:36:09;;;;;;;21.67;15.07;;;;;;;;;;5113993;28;20486;-80
2022/08/17 00:38:35;;;;;;;20.65;14.77;;;;;;;;;;5114002;28;20051;-80
2022/08/17 00:41:04;;;;;;;20.38;15.73;;;;;;;;;;5114446;28;20172;-80
2022/08/17 00:43:32;;;;;;;19.38;14.18;;;;;;;;;;5113850;28;20377;-80
2022/08/17 00:46:00;;;;;;;19.20;14.80;;;;;;;;;;5095575;28;20469;-80
2022/08/17 00:48:26;;;;;;;17.88;13.65;;;;;;;;;;5113744;28;20028;-80
2022/08/17 00:50:58;;;;;;;19.10;13.90;;;;;;;;;;5114286;28;20119;-80
2022/08/17 00:53:26;;;;;;;22.30;15.70;;;;;;;;;;5113830;28;20120;-80
2022/08/17 00:55:52;;;;;;;19.85;15.32;;;;;;;;;;5095490;28;20028;-80
2022/08/17 00:58:18;;;;;;;20.13;14.32;;;;;;;;;;5113070;28;20085;-80
2022/08/17 01:00:45;;;;;;;18.25;13.98;;;;;;;;;;5106748;28;20028;-80
2022/08/17 01:03:15;;;;;;;23.85;16.50;;;;;;;;;;5093479;28;20521;-80
2022/08/17 01:05:42;;;;;;;23.00;15.95;;;;;;;;;;5093166;28;20020;-80
2022/08/17 01:08:10;;;;;;;21.15;14.60;;;;;;;;;;5093392;28;20023;-80
2022/08/17 01:10:48;;;;;;;22.42;15.88;;;;;;;;;;5093098;28;20023;-80
2022/08/17 01:13:14;;;;;;;19.95;15.75;;;;;;;;;;5093615;28;20371;-80
2022/08/17 01:15:48;;;;;;;20.48;14.93;;;;;;;;;;5093134;28;20020;-80
2022/08/17 01:18:15;;;;;;;19.08;15.68;;;;;;;;;;5093120;28;20025;-80
2022/08/17 01:20:43;;;;;;;24.27;18.63;;;;;;;;;;5093026;28;20012;-80
2022/08/17 01:23:09;;;;;;;22.60;17.60;;;;;;;;;;5092787;28;20459;-80
2022/08/17 01:25:35;;;;;;;26.15;17.35;;;;;;;;;;5092872;28;20035;-80
2022/08/17 01:28:02;;;;;;;23.52;17.92;;;;;;;;;;5092724;28;20079;-80
2022/08/17 01:30:28;;;;;;;21.25;17.23;;;;;;;;;;5093025;28;20028;-80
2022/08/17 01:32:54;;;;;;;23.27;18.15;;;;;;;;;;5092893;28;20169;-80
2022/08/17 01:35:20;;;;;;;21.77;17.85;;;;;;;;;;5093043;28;20024;-80
2022/08/17 01:37:46;;;;;;;21.17;16.02;;;;;;;;;;5093243;28;20020;-80
2022/08/17 01:40:15;;;;;;;23.33;17.75;;;;;;;;;;5100632;28;20319;-80
2022/08/17 01:42:46;;;;;;;24.33;17.83;;;;;;;;;;5113267;28;20047;-80
2022/08/17 01:45:16;;;;;;;24.58;15.95;;;;;;;;;;5113167;28;20031;-80
2022/08/17 01:47:42;;;;;;;20.38;15.63;;;;;;;;;;5113252;28;20080;-80
2022/08/17 01:50:14;;;;;;;21.05;16.08;;;;;;;;;;5113606;28;20466;-80
2022/08/17 01:52:41;;;;;;;;;;;;;;;;;;5113886;28;20030;-80
2022/08/17 01:55:07;;;;;;;22.48;15.80;;;;;;;;;;5113392;28;19925;-80
2022/08/17 01:57:33;;;;;;;22.83;15.93;;;;;;;;;;5112943;28;20047;-80
2022/08/17 01:59:59;;;;;;;20.88;15.15;;;;;;;;;;5094812;28;20032;-80
2022/08/17 02:02:25;;;;;;;25.15;18.60;;;;;;;;;;5113349;28;20023;-80
2022/08/17 02:04:52;;;;;;;19.80;15.18;;;;;;;;;;5112982;28;20024;-80
2022/08/17 02:07:18;;;;;;;25.08;16.80;;;;;;;;;;5113295;28;20016;-80
2022/08/17 02:09:44;;;;;;;20.45;16.40;;;;;;;;;;5116579;28;20389;-80
2022/08/17 02:12:10;;;;;;;22.83;17.02;;;;;;;;;;5116840;28;20382;-80
2022/08/17 02:14:36;;;;;;;29.10;19.20;;;;;;;;;;5117048;28;20365;-80
2022/08/17 02:17:02;;;;;;;23.80;17.90;;;;;;;;;;5116812;28;20104;-80
2022/08/17 02:19:28;;;;;;;28.02;17.95;;;;;;;;;;5116605;28;20102;-80
2022/08/17 02:21:54;;;;;;;22.38;17.15;;;;;;;;;;5116618;28;20058;-80
2022/08/17 02:24:22;;;;;;;23.67;17.50;;;;;;;;;;5116169;28;20023;-80
2022/08/17 02:26:48;;;;;;;24.27;16.88;;;;;;;;;;5116416;28;20023;-80
2022/08/17 02:29:14;;;;;;;20.23;15.95;;;;;;;;;;5116305;28;20015;-80
2022/08/17 02:31:41;;;;;;;22.55;16.50;;;;;;;;;;5116533;28;20053;-80
2022/08/17 02:34:07;;;;;;;23.70;17.40;;;;;;;;;;5116395;28;20031;-80
2022/08/17 02:36:33;;;;;;;21.65;16.23;;;;;;;;;;5116330;28;20046;-80
2022/08/17 02:39:01;;;;;;;21.50;16.08;;;;;;;;;;5116240;28;20023;-80
2022/08/17 02:41:27;;;;;;;23.08;17.98;;;;;;;;;;5097975;28;20393;-80
2022/08/17 02:43:53;;;;;;;24.15;17.48;;;;;;;;;;5116159;28;20427;-80
2022/08/17 02:46:19;;;;;;;23.67;17.67;;;;;;;;;;5116062;28;20019;-80
2022/08/17 02:48:45;;;;;;;23.05;16.77;;;;;;;;;;5116080;28;20024;-80
2022/08/17 02:51:11;;;;;;;21.70;16.30;;;;;;;;;;5097705;28;20359;-80
2022/08/17 02:53:37;;;;;;;21.52;15.98;;;;;;;;;;5097667;28;20035;-80
2022/08/17 02:56:03;;;;;;;19.13;15.30;;;;;;;;;;5115923;28;20043;-80
2022/08/17 02:58:29;;;;;;;22.73;16.98;;;;;;;;;;5116152;28;20027;-80
2022/08/17 03:00:55;;;;;;;26.48;16.38;;;;;;;;;;5107469;28;20485;-80
2022/08/17 03:03:21;;;;;;;24.58;17.27;;;;;;;;;;5095241;28;20035;-80
2022/08/17 03:05:50;;;;;;;29.38;19.73;;;;;;;;;;5095406;28;20028;-80
2022/08/17 03:08:16;;;;;;;35.40;23.33;;;;;;;;;;5095226;28;20016;-80
2022/08/17 03:10:42;;;;;;;28.70;23.08;;;;;;;;;;5095612;28;20021;-79
2022/08/17 03:13:08;;;;;;;32.05;22.48;;;;;;;;;;5095260;28;20036;-80
2022/08/17 03:15:34;;;;;;;29.52;21.23;;;;;;;;;;5095173;28;20054;-80
2022/08/17 03:18:01;;;;;;;31.02;22.00;;;;;;;;;;5095387;28;20027;-80
2022/08/17 03:20:29;;;;;;;27.20;21.13;;;;;;;;;;5094437;28;20028;-80
2022/08/17 03:22:56;;;;;;;26.88;19.27;;;;;;;;;;5095342;28;20503;-80
2022/08/17 03:25:30;;;;;;;32.35;21.27;;;;;;;;;;5094677;28;20489;-80
2022/08/17 03:27:56;;;;;;;26.33;20.27;;;;;;;;;;5094547;28;20027;-80
2022/08/17 03:30:23;;;;;;;31.00;21.80;;;;;;;;;;5094733;28;20050;-80
2022/08/17 03:32:51;;;;;;;26.25;21.10;;;;;;;;;;5094848;28;20042;-80
2022/08/17 03:35:19;;;;;;;33.35;20.95;;;;;;;;;;5094911;28;20531;-80
2022/08/17 03:37:45;;;;;;;30.30;22.52;;;;;;;;;;5094781;28;20039;-80
2022/08/17 03:40:12;;;;;;;32.25;21.92;;;;;;;;;;5102285;28;20020;-80
2022/08/17 03:42:39;;;;;;;28.88;21.90;;;;;;;;;;5115067;28;20053;-80
2022/08/17 03:45:07;;;;;;;28.10;20.40;;;;;;;;;;5115591;28;20437;-80
2022/08/17 03:58:33;;;;;;;26.30;20.48;;;;;;;;;;5114755;28;20911;-80
2022/08/17 04:00:59;;;;;;;27.00;19.95;;;;;;;;;;5114883;28;20027;-80
2022/08/17 04:03:25;;;;;;;32.53;19.52;;;;;;;;;;5114563;28;20015;-80
2022/08/17 04:05:51;;;;;;;30.13;20.55;;;;;;;;;;5114954;28;20030;-80
2022/08/17 04:08:17;;;;;;;26.02;18.50;;;;;;;;;;5114841;28;20373;-80
2022/08/17 04:10:43;;;;;;;24.92;19.75;;;;;;;;;;5114910;28;20031;-80
2022/08/17 04:13:10;;;;;;;25.65;20.15;;;;;;;;;;5114481;28;20027;-80
2022/08/17 04:15:36;;;;;;;27.35;19.70;;;;;;;;;;5114443;28;20031;-80
2022/08/17 04:18:02;;;;;;;24.90;19.00;;;;;;;;;;5114562;28;20032;-80
2022/08/17 04:20:28;;;;;;;25.88;18.63;;;;;;;;;;5114569;28;20030;-80
2022/08/17 04:23:05;;;;;;;27.38;19.38;;;;;;;;;;5114229;28;20043;-80
2022/08/17 04:25:32;;;;;;;26.25;19.88;;;;;;;;;;5093743;28;20425;-80
2022/08/17 04:27:59;;;;;;;29.38;20.50;;;;;;;;;;5093976;28;20067;-80
2022/08/17 04:30:25;;;;;;;30.60;19.77;;;;;;;;;;5093754;28;20061;-80
2022/08/17 04:32:51;;;;;;;25.83;19.75;;;;;;;;;;5093136;28;20051;-80
2022/08/17 04:35:25;;;;;;;26.67;19.70;;;;;;;;;;5093841;28;20028;-80
2022/08/17 04:37:52;;;;;;;30.55;18.67;;;;;;;;;;5093646;28;20792;-80
2022/08/17 04:43:06;;;;;;;28.48;18.55;;;;;;;;;;5093862;28;20043;-80
2022/08/17 04:45:32;;;;;;;22.17;17.40;;;;;;;;;;5093670;28;20073;-80
2022/08/17 04:47:58;;;;;;;25.45;17.75;;;;;;;;;;5093387;28;20082;-80
2022/08/17 04:50:24;;;;;;;22.00;17.40;;;;;;;;;;5093911;28;20035;-80
2022/08/17 04:52:50;;;;;;;21.17;17.10;;;;;;;;;;5075219;28;20032;-80
2022/08/17 04:55:16;;;;;;;27.00;19.40;;;;;;;;;;5093787;28;20026;-80
2022/08/17 04:57:42;;;;;;;27.05;19.45;;;;;;;;;;5093199;28;20048;-80
2022/08/17 05:00:09;;;;;;;32.47;20.23;;;;;;;;;;5093207;28;20028;-80
2022/08/17 05:02:44;;;;;;;27.77;19.02;;;;;;;;;;5093497;28;20478;-80
2022/08/17 05:05:10;;;;;;;24.27;18.63;;;;;;;;;;5093825;28;20020;-80
2022/08/17 05:07:36;;;;;;;24.85;18.15;;;;;;;;;;5093202;28;20469;-80
2022/08/17 05:10:02;;;;;;;28.42;20.65;;;;;;;;;;5093052;28;20031;-80
2022/08/17 05:12:28;;;;;;;30.20;20.38;;;;;;;;;;5093188;28;20069;-80
2022/08/17 05:14:54;;;;;;;31.17;21.05;;;;;;;;;;5093127;28;20504;-80
2022/08/17 05:17:20;;;;;;;32.20;22.00;;;;;;;;;;5093062;28;20031;-80
2022/08/17 05:19:46;;;;;;;27.25;19.95;;;;;;;;;;5093363;28;20028;-80
2022/08/17 05:22:13;;;;;;;29.88;22.50;;;;;;;;;;5093230;28;20398;-80
2022/08/17 05:24:39;;;;;;;28.70;21.52;;;;;;;;;;5092511;28;20028;-80
2022/08/17 05:27:05;;;;;;;26.70;19.77;;;;;;;;;;5092583;28;20523;-80
2022/08/17 05:29:31;;;;;;;26.67;19.98;;;;;;;;;;5092956;28;20481;-80
2022/08/17 05:31:57;;;;;;;28.23;19.60;;;;;;;;;;5092929;28;20028;-80
2022/08/17 05:34:23;;;;;;;27.70;20.23;;;;;;;;;;5074864;28;20032;-80
2022/08/17 05:36:49;;;;;;;27.35;20.13;;;;;;;;;;5092936;28;20028;-80
2022/08/17 05:39:15;;;;;;;25.42;18.13;;;;;;;;;;5092886;28;20463;-80
2022/08/17 05:41:41;;;;;;;29.05;19.10;;;;;;;;;;5092849;28;20073;-80
2022/08/17 05:44:07;;;;;;;25.33;18.23;;;;;;;;;;5095771;28;20024;-80
2022/08/17 05:46:35;;;;;;;24.63;18.45;;;;;;;;;;5096864;28;20047;-80
2022/08/17 05:49:04;;;;;;;25.70;18.98;;;;;;;;;;5096843;28;20117;-80
2022/08/17 05:51:33;;;;;;;24.42;18.48;;;;;;;;;;5097066;28;20024;-80
2022/08/17 05:54:11;;;;;;;23.55;18.52;;;;;;;;;;5096772;28;20102;-80
2022/08/17 05:56:46;;;;;;;28.10;19.73;;;;;;;;;;5096726;28;20131;-80
2022/08/17 05:59:12;;;;;;;25.83;20.17;;;;;;;;;;5096575;28;20122;-80
2022/08/17 06:01:41;;;;;;;27.55;19.73;;;;;;;;;;5096526;28;20046;-80
2022/08/17 06:04:20;;;;;;;26.40;19.38;;;;;;;;;;5096340;28;20506;-80
2022/08/17 06:06:58;;;;;;;29.35;20.92;;;;;;;;;;5097029;28;20422;-80
2022/08/17 06:09:39;;;;;;;28.10;18.60;;;;;;;;;;5096392;28;20489;-80
2022/08/17 06:12:08;;;;;;;29.63;20.20;;;;;;;;;;5096189;28;20024;-80
2022/08/17 06:14:37;;;;;;;27.35;19.50;;;;;;;;;;5077763;28;20416;-80
2022/08/17 06:17:05;;;;;;;31.38;20.77;;;;;;;;;;5096101;28;20028;-80
2022/08/17 06:19:34;;;;;;;29.58;20.80;;;;;;;;;;5096347;28;20024;-80
2022/08/17 06:22:01;;;;;;;28.63;21.48;;;;;;;;;;5096422;28;20366;-80
2022/08/17 06:24:48;;;;;;;27.80;19.13;;;;;;;;;;5107287;28;20026;-80
2022/08/17 06:27:20;;;;;;;30.40;20.55;;;;;;;;;;5098051;28;20027;-80
2022/08/17 06:29:57;;;;;;;28.33;20.10;;;;;;;;;;5116903;28;20020;-80
2022/08/17 06:32:24;;;;;;;29.75;20.38;;;;;;;;;;5116427;28;20028;-80
2022/08/17 06:34:51;;;;;;;27.38;20.42;;;;;;;;;;5116433;28;20062;-80
2022/08/17 06:37:17;;;;;;;28.48;19.63;;;;;;;;;;5116227;28;20106;-80
2022/08/17 06:39:58;;;;;;;26.70;19.83;;;;;;;;;;5116178;28;20100;-80
2022/08/17 06:42:28;;;;;;;26.75;20.55;;;;;;;;;;5116217;28;20031;-80
2022/08/17 06:45:14;;;;;;;25.40;20.08;;;;;;;;;;5116093;28;20031;-80
2022/08/17 06:47:53;;;;;;;23.35;19.05;;;;;;;;;;5097744;28;20027;-80
2022/08/17 06:50:19;;;;;;;27.13;20.42;;;;;;;;;;5116704;28;20019;-80
2022/08/17 06:52:52;;;;;;;25.95;20.77;;;;;;;;;;5115989;28;20039;-79
2022/08/17 06:55:28;;;;;;;32.33;20.90;;;;;;;;;;5120033;27;20011;-78
2022/08/17 06:57:57;;;;;;;28.02;20.17;;;;;;;;;;5122992;27;20036;-78
2022/08/17 07:00:27;;;;;;;27.75;20.65;;;;;;;;;;5117553;27;20125;-77
2022/08/17 07:03:05;;;;;;;32.15;20.48;;;;;;;;;;5095647;28;20036;-78
2022/08/17 07:05:40;;;;;;;34.78;22.42;;;;;;;;;;5108320;27;20484;-79
2022/08/17 07:08:21;;;;;;;29.90;21.00;;;;;;;;;;5102517;28;20020;-79
2022/08/17 07:10:49;;;;;;;30.38;21.48;;;;;;;;;;5093466;27;20347;-79
2022/08/17 07:13:24;;;;;;;30.15;20.92;;;;;;;;;;5133272;27;20026;-79
2022/08/17 07:15:52;;;;;;;31.77;22.17;;;;;;;;;;5134488;27;20019;-79
2022/08/17 07:18:19;;;;;;;31.35;22.20;;;;;;;;;;5118080;27;20481;-79
2022/08/17 07:20:50;;;;;;;33.78;21.70;;;;;;;;;;5123839;27;20015;-79
2022/08/17 07:23:16;;;;;;;34.17;23.25;;;;;;;;;;5124893;27;20023;-79
2022/08/17 07:25:42;;;;;;;30.60;22.92;;;;;;;;;;5119298;27;20019;-79
2022/08/17 07:28:08;;;;;;;31.77;21.95;;;;;;;;;;5117833;27;20054;-79
2022/08/17 07:30:48;;;;;;;29.40;21.25;;;;;;;;;;5115823;28;20019;-79
2022/08/17 07:33:14;;;;;;;31.15;22.95;;;;;;;;;;5115154;28;20027;-79
2022/08/17 07:35:45;;;;;;;32.05;22.17;;;;;;;;;;5118094;27;20047;-79
2022/08/17 07:38:16;;;;;;;30.98;23.65;;;;;;;;;;5115160;28;20370;-79
2022/08/17 07:41:01;;;;;;;29.80;21.58;;;;;;;;;;5117541;27;20011;-79
2022/08/17 07:43:44;;;;;;;32.40;23.33;;;;;;;;;;5114906;28;20026;-79
2022/08/17 07:49:15;;;;;;;30.02;21.52;;;;;;;;;;5122602;27;20077;-79
2022/08/17 07:51:45;;;;;;;31.42;21.67;;;;;;;;;;5118296;27;20392;-78
2022/08/17 07:54:14;;;;;;;33.05;24.17;;;;;;;;;;5125040;27;20350;-78
2022/08/17 07:56:45;;;;;;;30.73;22.92;;;;;;;;;;5114174;27;20040;-79
2022/08/17 07:59:14;;;;;;;30.15;22.80;;;;;;;;;;5114570;28;20089;-78
2022/08/17 08:01:41;;;;;;;28.88;21.77;;;;;;;;;;5114319;28;20035;-79
2022/08/17 08:04:17;;;;;;;28.88;21.50;;;;;;;;;;5132511;27;20046;-78
2022/08/17 08:06:51;;;;;;;29.13;21.45;;;;;;;;;;5123425;27;20384;-79
2022/08/17 08:09:31;;;;;;;31.90;21.98;;;;;;;;;;5135000;27;20090;-79
2022/08/17 08:11:59;;;;;;;33.45;22.75;;;;;;;;;;5102854;27;20043;-79
2022/08/17 08:14:31;;;;;;;34.55;22.45;;;;;;;;;;5119669;27;20081;-78
2022/08/17 08:17:02;;;;;;;33.00;22.00;;;;;;;;;;5122530;27;20455;-79
2022/08/17 08:19:29;;;;;;;31.65;20.15;;;;;;;;;;5125379;27;20016;-78
2022/08/17 08:22:09;;;;;;;30.65;21.30;;;;;;;;;;5123736;27;20466;-75
2022/08/17 08:24:56;;;;;;;31.13;21.27;;;;;;;;;;5120465;27;20031;-77
2022/08/17 08:27:46;;;;;;;30.25;21.77;;;;;;;;;;5092884;27;20031;-77
2022/08/17 08:30:18;;;;;;;30.85;21.15;;;;;;;;;;5134685;27;20021;-77
2022/08/17 08:32:47;;;;;;;30.48;20.65;;;;;;;;;;5134400;27;20038;-77
2022/08/17 08:35:21;;;;;;;27.25;19.40;;;;;;;;;;5133978;27;20147;-76
2022/08/17 08:37:50;;;;;;;29.60;21.23;;;;;;;;;;5134079;27;20026;-77
2022/08/17 08:40:35;;;;;;;28.63;19.77;;;;;;;;;;5127244;27;20176;-77
2022/08/17 08:43:20;;;;;;;30.38;21.88;;;;;;;;;;5112956;28;20023;-81
2022/08/17 08:45:55;;;;;;;32.33;21.80;;;;;;;;;;5097402;28;20491;-79
2022/08/17 08:48:33;;;;;;;30.05;22.38;;;;;;;;;;5121373;27;20030;-81
2022/08/17 08:51:11;;;;;;;30.55;22.17;;;;;;;;;;5093658;28;20074;-81
2022/08/17 08:53:44;;;;;;;29.77;21.30;;;;;;;;;;5091975;28;20024;-79
2022/08/17 08:56:10;;;;;;;32.15;22.35;;;;;;;;;;5093542;28;20036;-81
2022/08/17 08:58:42;;;;;;;31.08;23.02;;;;;;;;;;5093719;28;20382;-81
2022/08/17 09:01:13;;;;;;;28.60;22.40;;;;;;;;;;5103577;28;20027;-79
2022/08/17 09:03:48;;;;;;;26.35;20.77;;;;;;;;;;5113679;28;20031;-81
2022/08/17 09:06:29;;;;;;;29.65;21.83;;;;;;;;;;5113675;28;20477;-81
2022/08/17 09:09:02;;;;;;;27.67;19.90;;;;;;;;;;5113485;28;20437;-80
2022/08/17 09:11:34;;;;;;;27.80;19.90;;;;;;;;;;5113771;28;20433;-83
2022/08/17 09:14:06;;;;;;;27.58;20.45;;;;;;;;;;5095213;28;20020;-80
2022/08/17 09:16:33;;;;;;;;;;;;;;;;;;5114132;28;20030;-78
2022/08/17 09:19:09;;;;;;;28.45;20.63;;;;;;;;;;5113258;28;19957;-81
2022/08/17 09:21:40;;;;;;;28.58;20.75;;;;;;;;;;5113708;28;20028;-81
2022/08/17 09:24:20;;;;;;;27.75;20.35;;;;;;;;;;5113787;28;20024;-80
2022/08/17 09:26:49;;;;;;;28.08;21.40;;;;;;;;;;5112845;28;20051;-79
2022/08/17 09:29:17;;;;;;;27.45;19.70;;;;;;;;;;5112600;28;20373;-78
2022/08/17 09:31:49;;;;;;;28.33;20.42;;;;;;;;;;5111912;28;20016;-77
2022/08/17 09:34:15;;;;;;;;;;;;;;;;;;5112340;28;20026;-77
2022/08/17 09:36:51;;;;;;;25.48;19.35;;;;;;;;;;5111569;28;19903;-77
2022/08/17 09:39:37;;;;;;;25.85;19.13;;;;;;;;;;5111802;28;20045;-77
2022/08/17 09:42:13;;;;;;;26.95;18.05;;;;;;;;;;5111383;28;20069;-78
2022/08/17 09:44:43;;;;;;;26.23;18.33;;;;;;;;;;5111897;28;20012;-77
2022/08/17 09:47:24;;;;;;;26.13;18.25;;;;;;;;;;5111512;28;20020;-77
2022/08/17 09:49:52;;;;;;;25.33;19.58;;;;;;;;;;5109764;28;20068;-77
2022/08/17 09:52:23;;;;;;;23.20;16.77;;;;;;;;;;5111555;28;20440;-78
2022/08/17 09:54:50;;;;;;;22.55;17.17;;;;;;;;;;5111413;28;20020;-77
2022/08/17 09:57:23;;;;;;;22.55;16.50;;;;;;;;;;5111113;28;20355;-77
2022/08/17 10:00:00;;;;;;;20.67;16.73;;;;;;;;;;5104527;28;20043;-78
2022/08/17 10:02:42;;;;;;;21.20;16.50;;;;;;;;;;5109360;28;20128;-77
2022/08/17 10:05:14;;;;;;;20.17;15.73;;;;;;;;;;5088654;28;20118;-78
2022/08/17 10:07:43;;;;;;;24.50;15.85;;;;;;;;;;5112019;28;20024;-77
2022/08/17 10:10:15;;;;;;;19.27;15.48;;;;;;;;;;5112474;28;20127;-77
2022/08/17 10:13:01;;;;;;;20.58;15.80;;;;;;;;;;5112005;28;20103;-77
2022/08/17 10:15:38;;;;;;;21.73;14.45;;;;;;;;;;5112062;28;20086;-77
2022/08/17 10:18:33;;;;;;;18.23;13.23;;;;;;;;;;5112167;28;20028;-77
2022/08/17 10:26:35;;;;;;;17.30;13.57;;;;;;;;;;5115946;28;20743;-77
2022/08/17 10:29:04;;;;;;;16.52;13.25;;;;;;;;;;5114362;28;20015;-76
2022/08/17 10:31:33;;;;;;;15.48;12.35;;;;;;;;;;5116626;27;20023;-77
2022/08/17 10:34:18;;;;;;;23.42;14.23;;;;;;;;;;5117891;27;20032;-76
2022/08/17 10:36:51;;;;;;;16.90;13.10;;;;;;;;;;5117282;27;20034;-77
2022/08/17 10:39:23;;;;;;;19.70;13.85;;;;;;;;;;5117327;27;20534;-77
2022/08/17 10:41:51;;;;;;;18.73;15.07;;;;;;;;;;5117600;27;20030;-77
2022/08/17 10:44:28;;;;;;;21.98;15.32;;;;;;;;;;5114909;28;20023;-78
2022/08/17 10:47:15;;;;;;;23.10;15.05;;;;;;;;;;5109485;28;20028;-77
2022/08/17 10:49:46;;;;;;;21.08;15.20;;;;;;;;;;5114761;28;20165;-76
2022/08/17 10:52:29;;;;;;;21.33;16.08;;;;;;;;;;5112022;28;20024;-77
2022/08/17 10:54:57;;;;;;;20.00;15.38;;;;;;;;;;5111962;28;20499;-77
2022/08/17 10:57:26;;;;;;;18.30;15.57;;;;;;;;;;5114073;28;20047;-77
2022/08/17 10:59:53;;;;;;;19.30;15.68;;;;;;;;;;5120110;27;20024;-77
2022/08/17 11:02:24;;;;;;;19.92;16.08;;;;;;;;;;5117371;27;20028;-77
2022/08/17 11:04:55;;;;;;;22.52;16.63;;;;;;;;;;5120601;27;20574;-76
2022/08/17 11:07:44;;;;;;;22.02;17.05;;;;;;;;;;5114553;27;20031;-77
2022/08/17 11:10:14;;;;;;;22.23;16.48;;;;;;;;;;5067481;28;20023;-77
2022/08/17 11:12:40;;;;;;;21.83;16.80;;;;;;;;;;5114901;28;20099;-76
2022/08/17 11:15:21;;;;;;;24.05;17.15;;;;;;;;;;5113958;28;20115;-77
2022/08/17 11:17:48;;;;;;;23.85;17.77;;;;;;;;;;5114069;28;20065;-78
2022/08/17 11:20:33;;;;;;;22.33;17.00;;;;;;;;;;5113999;28;20051;-78
2022/08/17 11:23:09;;;;;;;24.27;17.33;;;;;;;;;;5112842;27;20842;-78
2022/08/17 11:25:40;;;;;;;23.17;17.05;;;;;;;;;;5113767;28;20085;-78
2022/08/17 11:28:18;;;;;;;25.70;20.20;;;;;;;;;;5131521;27;20098;-78
2022/08/17 11:30:56;;;;;;;24.65;19.60;;;;;;;;;;5135110;27;20034;-77
2022/08/17 11:33:28;;;;;;;28.27;21.60;;;;;;;;;;5135095;27;20027;-77
2022/08/17 11:35:54;;;;;;;;;;;;;;;;;;5130587;27;20110;-77
2022/08/17 11:38:49;;;;;;;26.42;19.95;;;;;;;;;;5114198;28;19947;-77
2022/08/17 11:41:26;;;;;;;29.70;21.55;;;;;;;;;;5007827;28;20034;-79
2022/08/17 11:44:11;;;;;;;28.77;20.65;;;;;;;;;;5113949;28;20054;-78
2022/08/17 11:52:42;;;;;;;34.50;23.42;;;;;;;;;;5114082;28;20085;-78
2022/08/17 11:55:10;;;;;;;26.92;20.83;;;;;;;;;;5114556;28;20019;-79
2022/08/17 11:57:43;;;;;;;28.45;20.98;;;;;;;;;;5113947;28;20044;-78
2022/08/17 12:00:29;;;;;;;29.00;22.17;;;;;;;;;;5114036;28;20047;-79
2022/08/17 12:03:14;;;;;;;34.00;24.38;;;;;;;;;;5108899;28;20378;-79
2022/08/17 12:05:40;;;;;;;33.42;24.17;;;;;;;;;;5109505;28;20020;-78
2022/08/17 12:08:09;;;;;;;33.83;24.25;;;;;;;;;;5114279;28;20019;-78
2022/08/17 12:10:39;;;;;;;32.90;24.35;;;;;;;;;;5103527;28;20031;-78
2022/08/17 12:13:15;;;;;;;41.45;27.30;;;;;;;;;;5113957;28;20015;-78
2022/08/17 12:15:47;;;;;;;33.90;24.90;;;;;;;;;;5114688;28;20359;-78
2022/08/17 12:18:19;;;;;;;36.95;24.60;;;;;;;;;;5114582;28;20027;-78
2022/08/17 12:20:47;;;;;;;33.80;22.90;;;;;;;;;;5100795;28;20024;-78
2022/08/17 12:23:23;;;;;;;35.78;23.95;;;;;;;;;;5113881;28;20028;-78
2022/08/17 12:26:03;;;;;;;41.20;26.92;;;;;;;;;;5114396;28;20024;-79
2022/08/17 12:28:36;;;;;;;36.40;25.92;;;;;;;;;;5095737;28;20027;-79
2022/08/17 12:31:04;;;;;;;35.90;24.63;;;;;;;;;;5114481;28;20032;-79
2022/08/17 12:33:30;;;;;;;39.25;26.38;;;;;;;;;;5114272;28;20026;-79
2022/08/17 12:36:01;;;;;;;32.70;24.77;;;;;;;;;;5114242;28;20111;-79
2022/08/17 12:38:28;;;;;;;31.93;24.77;;;;;;;;;;5114255;28;20024;-79
2022/08/17 12:40:56;;;;;;;41.55;27.27;;;;;;;;;;5114425;28;20594;-79
2022/08/17 12:43:25;;;;;;;43.95;28.10;;;;;;;;;;5114272;28;20381;-79
2022/08/17 12:45:59;;;;;;;36.20;26.85;;;;;;;;;;5113769;28;20036;-77
2022/08/17 12:48:26;;;;;;;37.22;27.80;;;;;;;;;;5113638;28;20037;-78
2022/08/17 12:50:58;;;;;;;38.80;26.38;;;;;;;;;;5114068;28;20028;-79
2022/08/17 12:53:27;;;;;;;38.20;27.67;;;;;;;;;;5094683;28;20042;-79
2022/08/17 12:55:53;;;;;;;38.47;27.40;;;;;;;;;;5113477;28;20019;-78
2022/08/17 12:58:32;;;;;;;36.70;27.05;;;;;;;;;;5095523;28;20035;-80
2022/08/17 13:01:01;;;;;;;35.42;25.92;;;;;;;;;;5095600;28;20465;-80
2022/08/17 13:03:30;;;;;;;41.97;30.00;;;;;;;;;;5113777;28;20097;-81
2022/08/17 13:06:11;;;;;;;42.42;26.88;;;;;;;;;;5113914;28;20023;-81
2022/08/17 13:08:46;;;;;;;43.42;31.15;;;;;;;;;;5113668;28;20030;-81
2022/08/17 13:11:17;;;;;;;41.47;30.52;;;;;;;;;;5093740;28;20027;-82
2022/08/17 13:13:50;;;;;;;47.15;32.58;;;;;;;;;;5110071;28;20099;-81
2022/08/17 13:16:19;;;;;;;51.45;34.42;;;;;;;;;;5113959;28;20019;-81
2022/08/17 13:18:47;;;;;;;41.25;30.52;;;;;;;;;;5114687;28;20039;-80
2022/08/17 13:21:22;;;;;;;43.53;29.67;;;;;;;;;;5113676;28;20030;-80
2022/08/17 13:23:55;;;;;;;43.58;30.15;;;;;;;;;;5113863;28;20019;-80
2022/08/17 13:26:26;;;;;;;41.75;29.77;;;;;;;;;;5113828;28;20024;-80
2022/08/17 13:28:53;;;;;;;46.22;31.60;;;;;;;;;;5113734;28;20103;-80
2022/08/17 13:31:33;;;;;;;43.92;31.17;;;;;;;;;;5095231;28;20083;-80
2022/08/17 13:34:15;;;;;;;46.85;31.00;;;;;;;;;;5113485;28;20019;-80
2022/08/17 13:36:41;;;;;;;;;;;;;;;;;;5113873;28;20023;-80
2022/08/17 13:39:13;;;;;;;44.35;29.92;;;;;;;;;;5113519;28;20009;-81
2022/08/17 13:41:39;;;;;;;43.10;31.20;;;;;;;;;;5113039;28;20480;-81
2022/08/17 13:44:27;;;;;;;43.50;31.00;;;;;;;;;;5113296;28;20030;-81
2022/08/17 13:46:53;;;;;;;42.70;29.25;;;;;;;;;;5095483;28;20363;-81
2022/08/17 13:49:20;;;;;;;44.25;32.20;;;;;;;;;;5112964;28;20102;-80
2022/08/17 13:51:48;;;;;;;51.63;32.90;;;;;;;;;;5113123;28;20415;-81
2022/08/17 13:54:20;;;;;;;40.83;30.83;;;;;;;;;;5113128;28;20031;-81
2022/08/17 13:57:13;;;;;;;47.60;33.35;;;;;;;;;;5113285;28;20494;-81
2022/08/17 13:59:39;;;;;;;;;;;;;;;;;;5108837;28;20043;-82
2022/08/17 14:02:07;;;;;;;47.95;33.22;;;;;;;;;;5112297;28;19915;-82
2022/08/17 14:04:33;;;;;;;49.42;32.35;;;;;;;;;;5114536;28;20020;-81
2022/08/17 14:07:12;;;;;;;47.55;33.65;;;;;;;;;;5120740;27;20088;-81
2022/08/17 14:09:38;;;;;;;49.97;32.67;;;;;;;;;;5117429;27;20111;-81
2022/08/17 14:12:11;;;;;;;48.15;33.03;;;;;;;;;;5117196;27;20015;-81
2022/08/17 14:14:37;;;;;;;46.40;32.05;;;;;;;;;;5099698;28;20110;-83
2022/08/17 14:17:04;;;;;;;48.75;34.00;;;;;;;;;;5117233;28;20028;-81
2022/08/17 14:19:30;;;;;;;47.83;33.55;;;;;;;;;;5116746;28;20024;-81
2022/08/17 14:21:58;;;;;;;48.67;34.83;;;;;;;;;;5087297;28;20035;-81
2022/08/17 14:24:30;;;;;;;53.95;32.20;;;;;;;;;;5107003;28;20043;-81
2022/08/17 14:26:56;;;;;;;52.78;35.72;;;;;;;;;;5118194;27;20016;-81
2022/08/17 14:29:24;;;;;;;56.88;37.67;;;;;;;;;;5118811;27;20362;-82
2022/08/17 14:31:50;;;;;;;52.42;35.40;;;;;;;;;;5122026;27;20798;-81
2022/08/17 14:34:17;;;;;;;56.55;36.03;;;;;;;;;;5116813;28;20026;-81
2022/08/17 14:36:44;;;;;;;53.75;36.53;;;;;;;;;;5116201;28;20464;-81
2022/08/17 14:39:10;;;;;;;52.35;35.58;;;;;;;;;;5098528;28;20342;-81
2022/08/17 14:41:37;;;;;;;47.20;33.65;;;;;;;;;;5116424;28;20028;-80
2022/08/17 14:44:03;;;;;;;48.78;35.05;;;;;;;;;;5116335;28;20016;-82
2022/08/17 14:46:30;;;;;;;50.60;36.10;;;;;;;;;;5116557;28;20023;-80
2022/08/17 14:48:56;;;;;;;52.00;35.55;;;;;;;;;;5116102;28;20027;-82
2022/08/17 14:51:22;;;;;;;52.25;36.30;;;;;;;;;;5116506;28;20342;-81
2022/08/17 14:53:49;;;;;;;48.35;34.05;;;;;;;;;;5116074;28;20024;-83
2022/08/17 14:56:15;;;;;;;47.15;35.33;;;;;;;;;;5098402;28;20066;-81
2022/08/17 14:58:41;;;;;;;51.15;36.25;;;;;;;;;;5116065;28;20125;-82
2022/08/17 15:01:14;;;;;;;49.35;35.38;;;;;;;;;;5121517;27;20027;-82
2022/08/17 15:03:41;;;;;;;54.22;36.03;;;;;;;;;;5116126;28;20441;-80
2022/08/17 15:06:14;;;;;;;52.38;36.38;;;;;;;;;;5097442;28;20704;-80